Main page
METAR-TAF:

METAR-TAF

Airports :

Kiruna Airport

Kiruna, Sweden

latitude: 67-49N, longitude: 020-20E, elevation: 452 m

Current weather observation

The report was made 18 minutes ago, at 22:20 UTC
Wind 15 kt from the Northwest
Temperature -4°C
Humidity 68%
Pressure 990 hPa
Visibility 10 km or more

METAR: ESNQ 212220Z AUTO 31015KT 9999 NCD M04/M09 Q0990

Time: 23:38 (22:38 UTC)

Forecast

The report was made 2 hours and 8 minutes ago, at 20:30 UTC
Forecast valid from 21 at 21 UTC to 21 at 23 UTC
Wind 9 kt from the West
Visibility 10 km or more
no clouds below 1500 m and no cumulonimbus

TAF: ESNQ 212030Z 2121/2123 27009KT CAVOK

Weather observations and forecasts of more than 4000 airports (METAR and TAF reports).

The available stations are represented by yellow and red dots on the map.

Hover mouse over dot to see the name of the station.

Then click to see weather observations and forecasts.

To change the map : click on the green buttons with a black cross to zoom in, on the green button with a dash to zoom out, or on the green arrows for adjacent maps.


METAR-TAF: